Latest Observation

67 Stations

10 Minute Data
as of 5/9/26 12:33 PM PDT
Station Date Time Temp (°F) RH (%) Dew Pt (°F) Wind Spd (mph) Wind Dir (°) Wind Gust (mph) Wind Gst Dir (°) Latest Rain (In) Soil Moist (%) Soil Temp (°F) Daily Rain (In) Daily Min Temp (°F) Daily Max Temp (°F) Daily Max Wind (mph)
Hobart Mills 5/9/26 1230 69.6   1.9 29   12 35.9   14.1 1.7   1.0 SSW | 196 5.6   2.0 SSW | 211 0.00 - 32.0   0.0 0.03 28.9   0.0 70.6   1.0 8.6   0.4
Prosser Dam 5/9/26 1230 68.7   0.1 31   12 36.7   12.1 5.0   0.8 N | 352 9.1   4.7 NW | 320 0.00 21.8   1.1 51.3   1.4 0.00 35.9   7.2 69.9   0.6 11.3   10.9
West Incline Village 5/9/26 1230 61.5   1.8 29   3 28.7   4.2 5.8   1.8 SSW | 196 10.8   2.2 SSW | 202 0.00 32.3   0.7 46.8   0.6 0.00 44.6   2.1 62.9   2.0 13.3   3.4
Incline Village (Fairview Blvd) 5/9/26 1230 64.8   6.2 28   2 30.7   7.3 3.2   1.8 SSW | 206 11.4   6.3 SSE | 155 0.00 25.9   0.3 53.6   1.4 0.00 46.7   2.2 65.7   5.7 12.8   5.8
Incline Village (Diamond Peak) 5/9/26 1230 61.9 30 30.1 0.7 NNW | 341 0.4 NNW | 341 0.00 9.2 48.2 0.00 49.7 62.9 19.0
Incline Village (Mill Creek) 5/9/26 1230 64.4   3.5 28   2 30.4   1.5 2.2   0.0 NE | 37 7.5   1.5 NE | 44 0.00 10.9   0.2 47.8   0.8 0.00 45.4   4.4 65.1   3.6 15.6   9.1
Incline Village (Lakeshore Blvd) 5/9/26 1230 63.1   4.3 44   10 41.0   10.6 1.9   0.1 SW | 232 4.3   0.4 SSE | 163 0.00 30.9   0.9 54.0   1.1 0.00 39.5   5.4 67.1   7.6 13.7   8.2
Glenbrook 5/9/26 1230 59.8   3.4 55   33 43.6   19.8 2.6   0.4 W | 269 6.0   1.2 W | 266 0.00 44.3   0.0 45.9   0.2 0.00 40.7   3.2 62.5   1.2 17.4   11.7
Zephyr Cove 5/9/26 1230 66.1   1.9 27   3 31.1   4.8 1.7   0.2 WSW | 250 5.7   0.5 SSW | 195 0.00 - 34.3   0.0 0.00 44.5   4.8 66.9   2.1 7.1   1.9
Kingsbury Grade 5/9/26 1230 62.7   2.5 29   5 29.8   6.5 4.6   1.1 ENE | 72 12.4   3.7 E | 100 0.00 6.9   0.1 54.0   2.1 0.00 42.9   6.4 63.2   1.9 19.1   10.4
South Daggett Pass (Ridge) 5/9/26 1230 59.1   1.1 33   3 30.1   3.6 5.3   1.7 ESE | 121 11.9   2.0 SE | 129 0.00 6.7   0.1 50.1   1.1 0.00 49.3   8.2 59.6   0.7 15.6   1.6
Palomino Valley 5/9/26 1230 75.1   1.0 18   1 28.7   0.8 5.3   0.9 NW | 322 11.9   0.4 WNW | 302 0.00 7.0   0.1 66.9   1.7 0.00 41.4   0.2 76.0   0.8 16.5   0.7
East Cold Springs 5/9/26 1230 69.9   1.0 23   3 30.8   4.7 6.3   0.7 ESE | 113 12.8   1.9 E | 98 0.00 1.8   0.0 57.6   0.8 0.00 50.5   5.4 71.4   1.3 14.9   2.6
Peavine 5/9/26 1230 67.3   2.5 25   0 30.6   2.5 3.2   2.7 ESE | 113 11.9   0.5 SE | 133 0.00 - 53.4   0.0 0.00 46.0   0.7 68.4   2.9 16.2   2.5
West Verdi Peak 5/9/26 1230 67.5   1.5 27   4 32.8   5.1 3.4   0.7 ESE | 122 10.9   2.6 ESE | 115 0.00 19.1   1.2 54.4   0.9 0.00 48.4   4.7 68.4   0.5 15.4   0.5
West Verdi 5/9/26 1230 71.2   0.0 25   5 33.2   5.9 5.1   0.1 ENE | 64 10.1   3.0 E | 80 0.00 7.8   0.1 63.4   1.5 0.00 45.4   2.8 71.8   0.2 12.8   5.6
South Verdi 5/9/26 1230 68.6   0.4 26   6 32.4   6.3 13.6   2.4 WSW | 248 22.0   4.0 WSW | 248 0.00 16.0   0.2 62.9   2.2 0.00 51.7   11.1 70.0   0.6 26.8   0.2
Northwest Reno 5/9/26 1230 71.2   1.3 20   4 28.6   6.8 5.0   0.8 ESE | 106 8.4   0.1 ENE | 74 0.00 23.9   0.2 65.0   1.6 0.00 54.3   5.5 72.2   0.8 17.5   10.4
North Lawton 5/9/26 1230 70.9   0.5 22   5 30.6   5.5 7.6   4.7 NE | 41 16.3   8.4 NE | 52 0.00 - 60.4   21.3 0.00 48.0   0.8 72.2   0.0 16.8   0.5
West Reno (Mogul) 5/9/26 1230 70.3   1.6 23   6 31.1   5.4 12.4   7.4 ENE | 60 19.8   9.1 ENE | 62 0.00 36.4   0.6 63.4   1.0 0.00 48.5   1.1 70.8   1.9 20.5   4.2
Caughlin (Hunter Lake Trail) 9/16/25 0800 59.7   3.5 41   11 35.9   2.7 0.0   0.0 N | 0 0.0   0.0 ENE | 66 0.00 15.7   0.0 69.8   0.5 0.00 55.7   3.2 67.7   9.1 9.4   0.9
ArrowCreek 5/9/26 1230 70.9   2.0 23   7 31.7   10.3 6.2   3.6 NE | 54 12.4   6.2 ENE | 76 0.00 - 32.0   0.0 0.00 50.4   4.4 71.5   2.2 15.3   3.0
Tracy 5/9/26 1230 75.5   0.5 16   4 26.5   6.9 5.1   2.2 NNE | 30 10.7   4.0 NE | 53 0.00 8.2   0.1 67.4   1.6 0.00 52.2   0.7 76.8   1.3 14.9   2.7
Virginia Highlands 5/9/26 1230 66.7   0.2 21   3 25.3   4.0 6.2   0.7 ESE | 103 14.8   3.5 ENE | 77 0.00 8.1   0.2 59.2   1.2 0.00 53.6   4.2 69.2   1.3 16.3   5.0
Virginia City 5/9/26 1230 66.3   0.6 22   4 26.1   5.4 5.2   0.7 SE | 146 12.5   2.2 SE | 138 0.00 8.3   0.0 58.0   1.8 0.00 53.6   0.4 67.4   0.3 27.1   8.3
Six Mile Canyon 9/9/25 0630 60.2   9.6 37   6 33.7   4.8 4.1   2.5 W | 277 6.1   2.9 WNW | 286 0.00 12.5   0.0 75.5   0.7 0.00 57.9   7.6 64.4   1.9 7.0   3.9
Mt Rose Highway 4/30/26 0510 40.8   4.7 47   13 22.3   1.3 2.3   0.2 WSW | 243 4.8   2.1 WSW | 246 0.00 24.1   0.3 43.0   0.8 0.00 40.5   4.7 43.0   5.3 7.7   0.4
Pleasant Valley 5/9/26 1230 73.2   0.5 23   4 32.9   4.8 3.1   1.2 SW | 236 9.9   4.5 SSW | 206 0.00 2.8   0.0 64.9   1.8 0.00 47.6   6.6 73.7   1.0 10.2   0.2
New Washoe City 5/9/26 1230 71.9   0.9 19   1 27.4   1.5 3.8   1.6 SW | 229 13.0   0.0 SSE | 158 0.00 4.4   0.0 62.3   1.1 0.00 47.9   3.6 72.7   0.9 13.0   0.0
Franktown Creek 5/9/26 1230 70.6   1.0 22   3 30.3   2.9 3.7   0.4 NNW | 344 9.2   5.8 NNE | 25 0.00 11.1   0.1 58.1   1.1 0.00 45.4   2.2 71.2   1.1 9.2   5.8
Musgrove Creek 5/9/26 1230 68.5   1.1 27   9 33.4   8.5 3.5   0.3 NNW | 345 8.2   0.2 WSW | 252 0.00 41.3   2.8 55.0   0.5 0.00 52.2   0.4 69.0   1.0 11.0   4.1
East Carson 11/23/24 0110 28.6   28.4 - - 4.7   11.0 SW | 220 14.7   10.1 SW | 219 0.02 - 50.9   0.1 0.02 -25.9   79.1 42.9   14.6 16.0   10.7
Kings Canyon 5/9/26 1230 69.9   1.4 24   8 31.1   9.1 3.9   1.2 WNW | 284 7.9   4.4 WNW | 289 0.00 14.3   0.4 58.9   1.5 0.00 47.3   3.9 71.0   1.1 11.7   3.1
Carson City (Voltaire Canyon) 5/9/26 1230 71.3   0.7 22   7 30.5   8.1 7.7   2.4 NNE | 17 14.4   4.3 NNE | 20 0.00 2.8   0.0 63.7   1.4 0.00 53.8   1.8 73.2   0.3 14.8   5.0
Jacks Valley 5/9/26 1230 70.7   0.9 22   7 30.2   8.8 5.5   2.2 NE | 35 14.3   1.6 NE | 49 0.00 13.1   0.4 67.3   2.1 0.00 47.5   1.1 71.5   1.0 15.6   7.0
Genoa 5/9/26 1230 73.3   1.1 24   10 34.6   12.2 1.6   3.2 NNW | 337 5.0   9.2 NNE | 27 0.00 7.2   0.7 74.3   0.9 0.00 47.9   3.2 74.9   0.3 7.8   6.3
South Genoa (Walleys Hot Springs) 5/9/26 1230 73.2   0.1 25   3 34.9   2.9 1.5   2.7 NNW | 345 4.8   6.2 NW | 314 0.00 13.9   0.0 64.6   1.3 0.00 43.3   3.0 74.2   0.2 10.1   1.0
SW Gardnerville (HWY 88) 5/9/26 1230 70.3   1.8 29   10 36.5   9.2 4.7   1.1 W | 265 7.8   1.2 W | 281 0.00 3.4   0.0 59.6   1.1 0.00 41.4   4.1 70.9   1.7 9.3   0.2
Sheridan 5/9/26 1230 71.1   0.3 26   8 34.4   9.5 3.5   1.8 NNE | 15 7.3   2.1 N | 5 0.00 3.5   0.7 62.0   1.3 0.00 45.3   2.7 71.6   0.1 9.3   1.9
Ruhenstroth 5/9/26 1230 71.8   1.5 26   12 35.6   13.2 5.4   0.4 WNW | 285 10.6   0.5 NW | 304 0.00 12.3   0.1 60.6   1.3 0.00 44.8   1.8 72.6   1.4 14.3   3.2
Double Spring 5/9/26 1230 67.7   1.4 23   5 28.4   4.5 8.6   0.4 S | 176 15.6   1.5 S | 182 0.00 31.0   0.1 58.7   1.8 0.00 40.4   1.6 68.4   1.2 15.6   2.0
North Topaz Lake 5/9/26 1230 69.9   2.9 22   8 29.1   8.5 6.8   1.3 SE | 146 13.8   2.5 E | 87 0.00 9.8   0.0 76.3   0.4 0.00 54.4   2.2 71.2   2.2 19.4   1.7
Wild Oat Mountain 5/9/26 1230 67.9   3.2 25   10 30.4   9.4 3.7   2.9 ENE | 59 12.4   8.1 ENE | 67 0.00 16.8   0.1 60.5   1.7 0.00 53.3   1.8 69.0   3.8 13.4   7.1
Smith Valley 5/9/26 1230 72.1   2.3 21   5 29.5   4.9 3.8   0.4 N | 356 8.9   0.6 NE | 46 0.00 5.8   0.1 63.9   2.2 0.00 48.0   2.5 73.2   2.0 13.3   3.0
Pine Grove Mountain 5/9/26 1230 58.0   1.6 29   11 25.6   10.0 5.0   5.1 NE | 54 12.7   7.2 ENE | 70 0.00 20.7   1.2 53.8   2.2 0.00 47.3   0.1 60.7   0.1 15.0   4.8
Paradise Hill 5/9/26 1230 70.8   3.0 19   2 26.8   5.4 4.1   3.5 S | 174 10.6   7.6 SSE | 168 0.00 8.0   0.0 61.7   0.3 0.00 42.2   0.2 71.5   3.3 15.3   8.6
Winnemucca 5/9/26 1230 72.1   2.1 15   5 21.4   9.0 8.2   0.9 NNE | 14 15.2   0.9 N | 6 0.00 5.9   0.1 61.2   0.1 0.00 51.4   0.4 73.2   1.9 15.2   7.0
NE Elko 5/9/26 1230 69.2   4.1 18   3 23.4   7.2 8.6   3.2 SSW | 196 14.2   4.6 SSE | 157 0.00 12.4   0.0 60.1   1.2 0.00 34.4   0.6 69.9   4.4 14.2   4.6
North Elko 5/9/26 1230 67.6   2.4 18   4 23.0   7.1 6.1   5.5 WNW | 291 13.4   11.3 W | 267 0.00 28.5   0.1 58.9   1.2 0.00 46.5   0.5 68.6   2.2 15.5   9.2
South Elko 5/9/26 1230 64.2   3.1 21   3 23.2   6.2 5.5   4.9 NNW | 342 14.0   6.8 NW | 323 0.00 18.2   0.1 58.1   0.8 0.00 49.6   3.2 97.6   26.9 14.0   9.1
Lamoille 1/28/26 1720 33.2   0.5 65   17 22.8   6.3 5.8   1.5 SSE | 166 7.7   1.9 SE | 139 0.00 12.2   0.0 33.4   0.1 0.02 23.5   2.0 36.5   5.9 25.6   17.4
Reid Gardner Sub 5/9/26 1230 96.0   1.5 11   0 33.3   1.7 1.8   0.9 SE | 124 6.3   2.1 SE | 133 0.00 27.2   2.6 74.6   1.5 0.00 55.8   1.5 96.5   1.4 10.1   1.5
Corn Creek 5/9/26 1230 90.5   0.8 12   1 31.4   0.5 4.5   6.5 WSW | 247 9.6   12.0 W | 277 0.00 4.0   0.0 80.7   1.6 0.00 74.4   3.2 91.2   0.2 20.5   1.1
Lucky Strike 5/9/26 1230 78.9   1.6 13   0 24.6   1.2 4.3   3.7 NE | 51 10.6   5.8 ENE | 57 0.00 4.7   0.1 74.2   2.0 0.00 65.8   3.4 79.5   0.0 17.5   6.5
Lower Angel Peak 5/9/26 1230 73.8   1.1 17   0 26.8   1.1 7.0   2.4 NNW | 346 13.5   0.0 NNW | 333 0.00 9.8   0.2 60.0   2.0 0.00 55.0   1.8 74.8   0.3 17.0   4.3
Angel Peak 5/9/26 1230 64.1   0.6 22   0 24.1   0.0 3.0   0.7 S | 190 14.4   6.6 SSE | 148 0.00 3.8   0.2 58.1   1.0 0.00 56.2   3.0 67.0   1.5 14.4   18.6
Upper Kyle Canyon 5/9/26 1230 68.1   0.7 21   2 26.8   2.5 9.6   7.4 ESE | 118 16.2   10.9 SE | 139 0.00 13.0   0.2 59.2   2.0 0.49 59.1   11.0 69.0   0.3 20.1   2.6
Mt Charleston 5/9/26 1230 68.6   0.4 21   1 27.0   2.1 2.8   0.8 E | 87 12.2   3.0 ENE | 75 0.00 18.1   0.1 52.1   1.4 0.00 55.6   3.7 70.0   1.5 15.3   1.2
Mid Kyle Canyon 5/9/26 0950 72.0   0.5 19   1 27.2   0.3 7.2   1.7 E | 79 12.5   2.5 ENE | 65 0.00 7.0   0.0 62.7   2.1 0.00 57.7   1.3 73.0   0.6 20.5   0.0
Blue Diamond 5/9/26 1230 89.0   0.3 13   1 31.0   1.7 5.5   0.9 SE | 132 12.5   2.6 E | 98 0.00 3.0   0.0 74.4   1.6 0.00 69.8   1.2 89.5   0.2 19.1   2.6
Artesian Sub 5/9/26 1230 96.3   0.4 10   0 31.9   1.2 1.1   0.5 SSW | 192 6.5   0.1 WSW | 240 0.00 13.2   0.0 75.8   0.9 0.00 74.8   4.6 97.0   0.4 12.5   4.1
North Henderson 5/9/26 1230 96.6   1.0 10   2 31.1   4.1 3.6   0.2 NNW | 338 8.4   1.6 NW | 308 0.00 9.6   0.1 82.6   2.1 0.00 79.7   6.8 97.0   0.8 15.2   5.1
Sandy Valley 5/9/26 1230 90.3   1.9 13   3 32.6   3.7 3.2   1.2 SSW | 199 7.3   2.2 SSW | 208 0.00 4.5   0.0 79.6   2.1 0.00 69.4   0.7 90.7   1.8 12.8   1.2
Searchlight 5/9/26 1230 88.7   0.1 15   0 35.1   0.5 8.4   3.6 SE | 138 14.9   0.6 SE | 126 0.00 4.7   0.1 78.0   2.7 0.00 69.9   1.4 90.9   1.3 19.1   0.2
Laughlin 5/9/26 1230 99.3   3.0 14   2 42.2   1.8 4.5   0.2 S | 187 8.3   0.0 SSE | 165 0.00 4.2   0.1 85.8   2.6 0.00 77.2   3.6 99.8   2.9 10.3   0.4
31Mission Hills 5/9/26 1230 92.7   1.2 11   1 29.7   0.6 5.4   3.6 N | 352 13.9   7.1 NW | 308 0.00 3.8   0.0 87.3   2.0 0.00 75.6   1.4 93.1   1.3 13.9   2.2
32 Enterprise Sierra Cliffs 5/9/26 1230 90.2   0.0 9   1 24.6   2.8 1.7   1.8 N | 7 6.0   2.5 NE | 56 0.00 2.2   0.0 81.0   1.6 0.00 75.2   2.1 90.5   0.6 18.4   5.3
Max     99.3 55 43.6 13.6 - 22.0 - 0.00 44.3 87.3 0.49 79.7 99.8 27.1
Avg     72.6 22 30.5 4.8 - 10.9 - 0.00 13.2 61.5 - - - -
Min     58.0 9 21.4 0.7 - 0.4 - 0.00 1.8 32.0 0.00 28.9 59.6 7.1